Time;durP1;ratioP1;P1;durP2;ratioP2;P2;SDS_P1;SDS_P2;PMS_P1;PMS_P2;Temp;Humidity;BMP_temperature;BMP_pressure;BME280_temperature;BME280_humidity;BME280_pressure;Samples;Min_cycle;Max_cycle;Signal;HPM_P1;HPM_P2
2022/01/08 00:01:18;;;;;;;10.43;9.43;;;4.10;99.90;;;;;;648104;222;26555;-82
2022/01/08 00:03:45;;;;;;;10.27;9.10;;;3.90;99.90;;;;;;641763;222;26479;-77
2022/01/08 00:06:13;;;;;;;11.47;10.07;;;3.90;99.90;;;;;;645097;222;26541;-78
2022/01/08 00:08:40;;;;;;;11.33;10.23;;;3.90;99.90;;;;;;641384;224;26499;-78
2022/01/08 00:11:09;;;;;;;10.80;9.77;;;4.00;99.90;;;;;;646626;222;26552;-83
2022/01/08 00:13:37;;;;;;;10.73;9.67;;;4.00;99.90;;;;;;638022;221;26796;-77
2022/01/08 00:16:02;;;;;;;10.27;9.37;;;3.90;99.90;;;;;;638206;222;26488;-78
2022/01/08 00:18:29;;;;;;;11.07;10.00;;;3.80;99.90;;;;;;641275;223;26767;-77
2022/01/08 00:20:56;;;;;;;12.00;10.80;;;3.90;99.90;;;;;;638615;222;26512;-78
2022/01/08 00:23:23;;;;;;;11.63;10.43;;;3.60;99.90;;;;;;637900;224;26736;-78
2022/01/08 00:25:51;;;;;;;11.53;10.33;;;3.50;99.90;;;;;;640552;222;26550;-77
2022/01/08 00:28:18;;;;;;;11.30;10.10;;;3.60;99.90;;;;;;640852;222;26956;-77
2022/01/08 00:30:47;;;;;;;11.00;9.90;;;3.60;99.90;;;;;;640852;221;26508;-79
2022/01/08 00:33:12;;;;;;;11.27;10.07;;;3.70;99.90;;;;;;639052;224;26833;-78
2022/01/08 00:35:39;;;;;;;12.07;10.87;;;3.70;99.90;;;;;;641022;224;26525;-77
2022/01/08 00:38:07;;;;;;;12.23;11.03;;;3.70;99.90;;;;;;638226;222;26763;-77
2022/01/08 00:40:34;;;;;;;12.50;11.30;;;3.50;99.90;;;;;;646780;219;26511;-79
2022/01/08 00:43:02;;;;;;;12.27;11.07;;;3.50;99.90;;;;;;638525;224;26533;-78
2022/01/08 00:45:29;;;;;;;13.00;11.70;;;3.70;99.90;;;;;;647671;221;26751;-78
2022/01/08 00:47:57;;;;;;;12.57;11.27;;;3.60;99.90;;;;;;641011;221;26494;-78
2022/01/08 00:50:25;;;;;;;12.97;11.57;;;3.40;99.90;;;;;;643899;222;26599;-78
2022/01/08 00:52:53;;;;;;;13.13;11.67;;;3.30;99.90;;;;;;638278;222;26558;-79
2022/01/08 00:55:20;;;;;;;12.53;11.33;;;3.30;99.90;;;;;;639550;224;26532;-78
2022/01/08 00:57:47;;;;;;;12.30;11.03;;;3.20;99.90;;;;;;644616;221;26530;-78
2022/01/08 01:00:14;;;;;;;12.93;11.63;;;3.20;99.90;;;;;;637634;222;26576;-78
2022/01/08 01:02:42;;;;;;;12.73;11.53;;;3.10;99.90;;;;;;639224;222;26547;-79
2022/01/08 01:05:10;;;;;;;14.20;11.80;;;3.00;99.90;;;;;;640058;222;26489;-79
2022/01/08 01:07:37;;;;;;;13.33;11.97;;;3.00;99.90;;;;;;643522;222;26802;-79
2022/01/08 01:10:05;;;;;;;13.33;12.10;;;2.90;99.90;;;;;;641616;219;26575;-78
2022/01/08 01:12:32;;;;;;;12.80;11.60;;;2.90;99.90;;;;;;641057;224;26753;-79
2022/01/08 01:14:59;;;;;;;14.50;13.10;;;3.00;99.90;;;;;;645038;221;26798;-78
2022/01/08 01:17:27;;;;;;;14.13;12.43;;;2.80;99.90;;;;;;638220;224;26814;-78
2022/01/08 01:19:54;;;;;;;13.77;12.37;;;2.90;99.90;;;;;;640862;223;26590;-78
2022/01/08 01:22:25;;;;;;;13.67;12.27;;;3.00;99.90;;;;;;640770;219;26798;-78
2022/01/08 01:24:49;;;;;;;13.43;12.13;;;2.90;99.90;;;;;;640259;224;26591;-79
2022/01/08 01:27:51;;;;;;;15.33;12.90;;;3.00;99.90;;;;;;647250;221;26787;-77
2022/01/08 01:29:56;;;;;;;13.93;12.53;;;3.00;99.90;;;;;;648282;221;26610;-81
2022/01/08 01:42:51;;;;;;;14.10;12.60;;;2.70;99.90;;;;;;638924;222;26588;-76
2022/01/08 01:47:29;;;;;;;14.60;13.00;;;2.80;99.90;;;;;;640515;224;26868;-76
2022/01/08 01:49:56;;;;;;;14.70;13.10;;;2.80;99.90;;;;;;642863;222;26594;-76
2022/01/08 01:52:24;;;;;;;13.70;12.30;;;2.70;99.90;;;;;;643068;217;26556;-76
2022/01/08 01:54:51;;;;;;;13.80;11.97;;;2.70;99.90;;;;;;639829;224;26578;-76
2022/01/08 01:57:20;;;;;;;14.13;12.73;;;2.60;99.90;;;;;;639903;224;27512;-76
2022/01/08 01:59:46;;;;;;;13.03;11.73;;;2.50;99.90;;;;;;636803;224;26590;-76
2022/01/08 02:02:13;;;;;;;13.77;12.40;;;2.70;99.90;;;;;;639888;224;27171;-76
2022/01/08 02:04:40;;;;;;;14.43;12.90;;;2.80;99.90;;;;;;639639;224;26524;-76
2022/01/08 02:07:08;;;;;;;13.97;12.47;;;2.70;99.90;;;;;;640428;224;26807;-76
2022/01/08 02:09:37;;;;;;;13.03;11.73;;;2.70;99.90;;;;;;640409;224;26559;-76
2022/01/08 02:12:05;;;;;;;14.87;12.37;;;2.90;99.90;;;;;;637426;224;26555;-76
2022/01/08 02:14:32;;;;;;;12.80;11.60;;;2.80;99.90;;;;;;638471;223;26869;-76
2022/01/08 02:17:00;;;;;;;12.53;11.23;;;2.90;99.90;;;;;;646788;221;26824;-77
2022/01/08 02:19:27;;;;;;;11.93;10.83;;;3.20;99.90;;;;;;650758;221;26846;-76
2022/01/08 02:21:56;;;;;;;12.93;11.57;;;3.40;99.90;;;;;;650830;221;26771;-76
2022/01/08 02:24:24;;;;;;;13.47;12.07;;;3.40;99.90;;;;;;650008;221;26530;-76
2022/01/08 02:26:51;;;;;;;12.17;11.00;;;3.40;99.90;;;;;;637586;224;26766;-76
2022/01/08 02:29:18;;;;;;;12.20;11.00;;;3.40;99.90;;;;;;640702;224;26773;-76
2022/01/08 02:31:54;;;;;;;11.83;10.73;;;3.40;99.90;;;;;;640757;223;26799;-76
2022/01/08 02:34:22;;;;;;;12.00;10.80;;;3.60;99.90;;;;;;640700;223;26584;-76
2022/01/08 02:36:49;;;;;;;13.87;10.87;;;3.60;99.90;;;;;;637966;223;26533;-76
2022/01/08 02:39:17;;;;;;;12.40;10.80;;;3.50;99.90;;;;;;637299;224;26565;-76
2022/01/08 02:41:44;;;;;;;12.70;11.40;;;3.20;99.90;;;;;;645203;222;27287;-76
2022/01/08 02:44:11;;;;;;;12.30;11.00;;;3.10;99.90;;;;;;646956;217;26763;-76
2022/01/08 02:46:38;;;;;;;13.03;10.97;;;3.20;99.90;;;;;;637232;219;26845;-76
2022/01/08 02:49:06;;;;;;;12.27;11.07;;;3.30;99.90;;;;;;639583;224;26525;-76
2022/01/08 02:51:35;;;;;;;12.73;11.53;;;3.20;99.90;;;;;;639368;221;26925;-76
2022/01/08 02:54:00;;;;;;;12.63;11.37;;;3.20;99.90;;;;;;649874;221;26531;-76
2022/01/08 02:56:27;;;;;;;12.73;10.90;;;3.40;99.90;;;;;;641379;221;26783;-76
2022/01/08 02:58:54;;;;;;;12.50;11.23;;;3.30;99.90;;;;;;644299;222;26588;-76
2022/01/08 03:01:21;;;;;;;11.63;10.50;;;3.30;99.90;;;;;;647258;222;26857;-76
2022/01/08 03:03:49;;;;;;;11.63;10.43;;;3.20;99.90;;;;;;637901;222;26558;-76
2022/01/08 03:06:16;;;;;;;12.17;10.90;;;3.30;99.90;;;;;;638043;224;26584;-76
2022/01/08 03:08:44;;;;;;;13.57;12.17;;;3.30;99.90;;;;;;637687;224;26564;-76
2022/01/08 03:11:12;;;;;;;12.13;10.80;;;3.40;99.90;;;;;;639559;224;26556;-76
2022/01/08 03:13:40;;;;;;;10.87;9.77;;;3.50;99.90;;;;;;637126;225;26570;-76
2022/01/08 03:16:07;;;;;;;12.07;10.73;;;3.50;99.90;;;;;;639015;224;26754;-76
2022/01/08 03:18:36;;;;;;;10.87;9.87;;;3.40;99.90;;;;;;640567;224;26528;-76
2022/01/08 03:21:11;;;;;;;11.50;10.20;;;3.40;99.90;;;;;;638226;224;27338;-76
2022/01/08 03:23:38;;;;;;;11.97;10.10;;;3.50;99.90;;;;;;637284;223;26574;-76
2022/01/08 03:25:56;;;;;;;12.07;10.70;;;3.40;99.90;;;;;;640847;222;26859;-76
2022/01/08 03:28:23;;;;;;;11.90;10.70;;;3.30;99.90;;;;;;644826;222;26569;-76
2022/01/08 03:30:50;;;;;;;10.83;9.73;;;3.50;99.90;;;;;;647092;222;26827;-76
2022/01/08 03:33:17;;;;;;;11.27;10.13;;;3.50;99.90;;;;;;637831;224;26582;-76
2022/01/08 03:35:44;;;;;;;11.17;10.07;;;3.40;99.90;;;;;;637600;224;26815;-76
2022/01/08 03:38:12;;;;;;;12.03;10.93;;;3.70;99.90;;;;;;637605;225;26508;-76
2022/01/08 03:40:40;;;;;;;10.73;9.63;;;3.60;99.90;;;;;;638706;224;26564;-76
2022/01/08 03:43:08;;;;;;;11.67;10.47;;;3.30;99.90;;;;;;639836;223;26580;-76
2022/01/08 03:45:36;;;;;;;11.53;10.37;;;3.40;99.90;;;;;;640363;221;26589;-80
2022/01/08 03:50:47;;;;;;;12.00;10.80;;;3.30;99.90;;;;;;625448;225;26598;-78
2022/01/08 03:53:14;;;;;;;11.10;10.00;;;3.40;99.90;;;;;;642704;222;26571;-78
2022/01/08 03:55:41;;;;;;;11.87;10.37;;;3.40;99.90;;;;;;639171;217;26799;-78
2022/01/08 03:58:09;;;;;;;10.80;9.80;;;3.40;99.90;;;;;;641045;222;26582;-79
2022/01/08 04:00:37;;;;;;;11.93;10.73;;;3.40;99.90;;;;;;647152;222;26591;-80
2022/01/08 04:03:05;;;;;;;11.37;10.20;;;3.30;99.90;;;;;;639703;222;26615;-78
2022/01/08 04:05:33;;;;;;;11.47;10.30;;;3.10;99.90;;;;;;646043;222;26592;-78
2022/01/08 04:08:00;;;;;;;11.60;10.40;;;3.10;99.90;;;;;;647047;222;26576;-79
2022/01/08 04:10:27;;;;;;;11.63;10.40;;;3.00;99.90;;;;;;646941;222;26574;-78
2022/01/08 04:12:58;;;;;;;11.53;10.33;;;3.10;99.90;;;;;;647874;221;27146;-78
2022/01/08 04:15:35;;;;;;;11.23;10.03;;;3.10;99.90;;;;;;643946;221;26733;-78
2022/01/08 04:18:01;;;;;;;12.73;11.17;;;3.30;99.90;;;;;;639151;224;26825;-78
2022/01/08 04:20:28;;;;;;;12.30;11.07;;;3.30;99.90;;;;;;645888;219;26821;-78
2022/01/08 04:22:55;;;;;;;12.07;10.87;;;3.30;99.90;;;;;;636886;224;26548;-79
2022/01/08 04:25:22;;;;;;;11.87;10.70;;;3.40;99.90;;;;;;639238;222;26919;-78
2022/01/08 04:27:49;;;;;;;11.80;10.60;;;3.30;99.90;;;;;;647078;222;26594;-79
2022/01/08 04:30:17;;;;;;;11.97;10.50;;;3.30;99.90;;;;;;649193;221;26912;-78
2022/01/08 04:32:44;;;;;;;11.77;10.67;;;3.30;99.90;;;;;;650015;221;26578;-78
2022/01/08 04:35:12;;;;;;;12.07;10.87;;;3.80;99.90;;;;;;649851;221;26531;-78
2022/01/08 04:37:39;;;;;;;11.97;10.63;;;3.80;99.90;;;;;;650037;219;26575;-78
2022/01/08 04:40:06;;;;;;;11.60;10.10;;;3.40;99.90;;;;;;648459;221;26551;-78
2022/01/08 04:42:34;;;;;;;12.30;10.30;;;3.60;99.90;;;;;;648047;221;26585;-79
2022/01/08 04:45:01;;;;;;;12.50;10.50;;;3.50;99.90;;;;;;646927;222;26568;-79
2022/01/08 04:47:29;;;;;;;11.40;9.97;;;3.40;99.90;;;;;;647685;222;26526;-78
2022/01/08 04:49:57;;;;;;;11.50;10.33;;;3.30;99.90;;;;;;639005;221;26531;-78
2022/01/08 04:52:25;;;;;;;12.23;10.33;;;3.20;99.90;;;;;;640624;221;26638;-78
2022/01/08 04:54:52;;;;;;;11.63;10.07;;;3.20;99.90;;;;;;639195;224;26573;-78
2022/01/08 04:57:19;;;;;;;12.33;10.73;;;3.20;99.90;;;;;;640514;224;26587;-78
2022/01/08 04:59:47;;;;;;;11.73;10.33;;;3.40;99.90;;;;;;640655;224;26601;-82
2022/01/08 05:02:15;;;;;;;10.80;9.77;;;3.40;99.90;;;;;;646330;222;26614;-83
2022/01/08 05:04:42;;;;;;;11.63;10.53;;;3.40;99.90;;;;;;642333;217;26991;-82
2022/01/08 05:07:09;;;;;;;11.90;10.70;;;3.30;99.90;;;;;;637283;224;26579;-82
2022/01/08 05:09:37;;;;;;;11.50;10.30;;;3.30;99.90;;;;;;637106;219;26858;-83
2022/01/08 05:12:04;;;;;;;12.93;11.60;;;3.30;99.90;;;;;;637070;225;26573;-83
2022/01/08 05:14:31;;;;;;;12.20;11.00;;;3.30;99.90;;;;;;636816;224;26597;-83
2022/01/08 05:17:01;;;;;;;11.77;10.43;;;3.10;99.90;;;;;;638758;219;26569;-83
2022/01/08 05:19:40;;;;;;;12.00;10.73;;;3.20;99.90;;;;;;640631;219;26560;-82
2022/01/08 05:21:58;;;;;;;11.90;10.43;;;3.10;99.90;;;;;;646652;221;26606;-82
2022/01/08 05:24:23;;;;;;;11.33;10.13;;;3.00;99.90;;;;;;644735;221;26556;-83
2022/01/08 05:26:51;;;;;;;12.03;10.67;;;3.00;99.90;;;;;;640413;222;26606;-86
2022/01/08 05:29:18;;;;;;;12.47;10.87;;;3.00;99.90;;;;;;646829;222;26569;-82
2022/01/08 05:31:47;;;;;;;12.17;10.90;;;3.00;99.90;;;;;;647379;217;26567;-82
2022/01/08 05:34:13;;;;;;;12.77;11.47;;;3.10;99.90;;;;;;649649;221;26851;-83
2022/01/08 05:36:40;;;;;;;12.60;10.60;;;3.00;99.90;;;;;;648334;221;26572;-83
2022/01/08 05:39:07;;;;;;;12.80;11.13;;;2.80;99.90;;;;;;643145;222;26952;-83
2022/01/08 05:41:34;;;;;;;13.77;11.17;;;2.30;99.90;;;;;;636563;224;26590;-82
2022/01/08 05:44:01;;;;;;;13.83;11.40;;;2.70;99.90;;;;;;636767;224;26782;-82
2022/01/08 05:46:29;;;;;;;12.67;11.37;;;2.60;99.90;;;;;;639475;221;26632;-78
2022/01/08 05:49:00;;;;;;;14.97;13.00;;;2.70;99.90;;;;;;638792;219;27281;-78
2022/01/08 05:51:23;;;;;;;14.47;12.27;;;2.80;99.90;;;;;;642426;222;26534;-79
2022/01/08 05:53:50;;;;;;;13.70;12.07;;;2.90;99.90;;;;;;647888;221;26793;-78
2022/01/08 05:56:18;;;;;;;14.33;12.53;;;3.00;99.90;;;;;;647931;222;26587;-78
2022/01/08 05:58:46;;;;;;;13.13;11.73;;;3.10;99.90;;;;;;649262;221;26520;-79
2022/01/08 06:01:15;;;;;;;12.67;11.30;;;2.90;99.90;;;;;;645856;221;26593;-78
2022/01/08 06:03:42;;;;;;;13.60;12.20;;;2.90;99.90;;;;;;637502;225;26518;-78
2022/01/08 06:06:10;;;;;;;12.97;11.50;;;3.10;99.90;;;;;;637441;225;26519;-80
2022/01/08 06:08:38;;;;;;;11.80;10.60;;;3.10;99.90;;;;;;637409;224;26617;-79
2022/01/08 06:11:05;;;;;;;14.03;12.50;;;3.10;99.90;;;;;;640678;223;26596;-78
2022/01/08 06:13:32;;;;;;;13.20;11.53;;;3.00;99.90;;;;;;640645;223;26589;-78
2022/01/08 06:15:59;;;;;;;15.37;12.50;;;2.90;99.90;;;;;;640651;224;26875;-79
2022/01/08 06:18:27;;;;;;;15.17;11.80;;;3.20;99.90;;;;;;640543;224;26588;-78
2022/01/08 06:20:55;;;;;;;12.87;11.07;;;3.00;99.90;;;;;;640558;223;26827;-78
2022/01/08 06:23:21;;;;;;;13.23;11.83;;;3.10;99.90;;;;;;641157;224;26537;-78
2022/01/08 06:25:48;;;;;;;12.10;10.50;;;3.30;99.90;;;;;;640240;224;26788;-78
2022/01/08 06:28:16;;;;;;;12.00;10.80;;;3.60;99.90;;;;;;637550;224;26545;-78
2022/01/08 06:30:43;;;;;;;11.73;10.37;;;3.60;99.90;;;;;;640517;224;26562;-78
2022/01/08 06:33:11;;;;;;;12.43;10.80;;;3.50;99.90;;;;;;640978;224;26824;-79
2022/01/08 06:35:38;;;;;;;13.10;10.47;;;3.50;99.90;;;;;;640980;224;26502;-79
2022/01/08 06:38:06;;;;;;;12.97;11.03;;;3.50;99.90;;;;;;640891;224;26533;-78
2022/01/08 06:40:34;;;;;;;12.07;10.77;;;3.70;99.90;;;;;;640936;221;26557;-79
2022/01/08 06:43:02;;;;;;;14.30;11.10;;;3.80;99.90;;;;;;640954;219;26541;-79
2022/01/08 06:45:30;;;;;;;11.87;10.67;;;3.80;99.90;;;;;;640989;224;26530;-79
2022/01/08 06:47:57;;;;;;;11.73;10.20;;;4.00;99.90;;;;;;637587;224;26534;-79
2022/01/08 06:50:27;;;;;;;11.97;10.77;;;4.10;99.90;;;;;;639788;222;26773;-79
2022/01/08 06:52:51;;;;;;;12.57;11.30;;;4.00;99.90;;;;;;643062;222;26532;-78
2022/01/08 06:55:18;;;;;;;12.53;11.23;;;4.10;99.90;;;;;;647613;222;26806;-78
2022/01/08 06:57:46;;;;;;;12.20;10.83;;;3.90;99.90;;;;;;647630;222;26540;-78
2022/01/08 07:00:13;;;;;;;12.33;11.10;;;3.90;99.90;;;;;;652380;218;26805;-78
2022/01/08 07:02:40;;;;;;;11.20;10.10;;;4.10;99.90;;;;;;643121;220;27092;-78
2022/01/08 07:05:10;;;;;;;11.60;10.30;;;4.20;99.90;;;;;;638665;223;26530;-78
2022/01/08 07:07:37;;;;;;;11.40;10.17;;;4.30;99.90;;;;;;638407;225;26528;-80
2022/01/08 07:10:05;;;;;;;15.27;10.63;;;4.30;99.90;;;;;;638250;222;26519;-79
2022/01/08 07:12:33;;;;;;;11.80;9.93;;;4.40;99.90;;;;;;639963;224;26540;-81
2022/01/08 07:15:00;;;;;;;13.40;11.17;;;4.40;99.90;;;;;;641656;223;26494;-79
2022/01/08 07:17:28;;;;;;;13.60;11.07;;;4.30;99.90;;;;;;641554;219;26516;-79
2022/01/08 07:19:55;;;;;;;12.77;11.17;;;4.10;99.90;;;;;;638341;223;26772;-79
2022/01/08 07:22:22;;;;;;;12.07;10.60;;;4.10;99.90;;;;;;637869;224;26488;-79
2022/01/08 07:24:49;;;;;;;12.83;11.40;;;4.20;99.90;;;;;;640447;224;26823;-79
2022/01/08 07:27:17;;;;;;;11.77;10.57;;;4.00;99.90;;;;;;641208;224;26535;-78
2022/01/08 07:29:45;;;;;;;11.77;10.40;;;4.40;99.90;;;;;;641283;224;26563;-79
2022/01/08 07:32:12;;;;;;;13.83;10.33;;;4.40;99.90;;;;;;640511;223;26538;-78
2022/01/08 07:34:39;;;;;;;12.60;10.63;;;4.60;99.90;;;;;;637873;224;26529;-78
2022/01/08 07:37:06;;;;;;;14.33;11.23;;;4.60;99.90;;;;;;637546;225;26769;-78
2022/01/08 07:39:34;;;;;;;12.27;10.33;;;4.60;99.90;;;;;;646738;222;26765;-77
2022/01/08 07:42:01;;;;;;;13.23;10.80;;;4.10;99.90;;;;;;647662;222;26535;-78
2022/01/08 07:44:28;;;;;;;13.73;11.33;;;4.00;99.90;;;;;;647418;222;27007;-79
2022/01/08 07:46:57;;;;;;;13.03;11.53;;;3.80;99.90;;;;;;647648;217;26548;-78
2022/01/08 07:49:22;;;;;;;11.97;10.17;;;4.00;99.90;;;;;;647553;222;27067;-82
2022/01/08 07:51:50;;;;;;;11.83;10.30;;;3.70;99.90;;;;;;639753;222;26537;-78
2022/01/08 07:54:17;;;;;;;12.03;10.77;;;3.70;99.90;;;;;;637552;224;26831;-78
2022/01/08 07:56:44;;;;;;;12.67;10.67;;;3.80;99.90;;;;;;646157;222;26560;-78
2022/01/08 07:59:11;;;;;;;11.80;10.37;;;3.70;99.90;;;;;;647643;218;26743;-78
2022/01/08 08:01:39;;;;;;;12.57;10.53;;;4.00;99.90;;;;;;640054;222;26567;-78
2022/01/08 08:04:07;;;;;;;12.13;10.60;;;4.00;99.90;;;;;;637817;222;26494;-78
2022/01/08 08:06:37;;;;;;;15.17;11.63;;;4.20;99.90;;;;;;637555;222;26545;-78
2022/01/08 08:09:03;;;;;;;13.20;11.00;;;4.20;99.90;;;;;;646906;222;26735;-78
2022/01/08 08:11:30;;;;;;;13.07;11.07;;;4.30;99.90;;;;;;641114;222;26565;-78
2022/01/08 08:13:57;;;;;;;12.60;10.67;;;4.50;99.90;;;;;;638999;224;26485;-78
2022/01/08 08:16:26;;;;;;;11.90;10.23;;;4.10;99.90;;;;;;639180;223;26741;-79
2022/01/08 08:18:53;;;;;;;13.53;10.70;;;3.80;99.90;;;;;;641381;224;26566;-78
2022/01/08 08:21:21;;;;;;;14.23;11.30;;;3.50;99.90;;;;;;641320;222;26731;-78
2022/01/08 08:23:49;;;;;;;11.67;10.47;;;3.60;99.90;;;;;;647857;222;26582;-82
2022/01/08 08:26:17;;;;;;;12.13;10.83;;;3.50;99.90;;;;;;640659;222;26583;-81
2022/01/08 08:28:44;;;;;;;11.83;10.50;;;3.70;99.90;;;;;;639709;224;26554;-80
2022/01/08 08:31:11;;;;;;;15.03;11.70;;;3.90;99.90;;;;;;640793;224;26873;-80
2022/01/08 08:33:38;;;;;;;14.60;12.00;;;4.10;99.90;;;;;;640835;224;26556;-80
2022/01/08 08:36:05;;;;;;;12.47;11.17;;;4.20;99.90;;;;;;640837;223;26892;-81
2022/01/08 08:38:33;;;;;;;14.27;12.63;;;4.20;99.90;;;;;;637409;223;26597;-80
2022/01/08 08:41:00;;;;;;;16.57;12.30;;;4.20;99.90;;;;;;637401;225;26810;-80
2022/01/08 08:43:27;;;;;;;12.33;10.90;;;4.30;99.90;;;;;;637434;224;26778;-82
2022/01/08 08:45:54;;;;;;;12.47;11.10;;;4.50;99.90;;;;;;637393;225;26819;-80
2022/01/08 08:48:21;;;;;;;15.30;12.60;;;4.30;99.90;;;;;;637053;224;26593;-79
2022/01/08 08:50:49;;;;;;;12.77;11.33;;;4.40;99.90;;;;;;636946;221;27186;-80
2022/01/08 08:53:16;;;;;;;15.40;13.33;;;4.40;99.90;;;;;;635038;224;25688;-81
2022/01/08 08:55:45;;;;;;;15.07;12.53;;;4.50;99.90;;;;;;638242;224;26809;-80
2022/01/08 08:58:12;;;;;;;15.87;13.00;;;4.40;99.90;;;;;;640475;224;26578;-80
2022/01/08 09:00:40;;;;;;;14.40;12.70;;;4.30;99.90;;;;;;640491;224;26599;-80
2022/01/08 09:03:08;;;;;;;14.07;12.00;;;4.30;99.90;;;;;;640519;224;26758;-80
2022/01/08 09:05:35;;;;;;;14.50;12.13;;;4.40;99.90;;;;;;640536;224;26576;-80
2022/01/08 09:08:04;;;;;;;14.80;11.63;;;4.50;99.90;;;;;;640530;224;26846;-80
2022/01/08 09:10:29;;;;;;;13.07;11.67;;;4.50;99.90;;;;;;643894;222;26603;-80
2022/01/08 09:12:57;;;;;;;15.73;12.43;;;4.30;99.90;;;;;;647291;222;26582;-80
2022/01/08 09:15:26;;;;;;;13.43;12.00;;;4.30;99.90;;;;;;647165;221;26626;-80
2022/01/08 09:17:52;;;;;;;14.30;12.23;;;4.30;99.90;;;;;;647080;222;26574;-80
2022/01/08 09:20:19;;;;;;;16.50;12.67;;;4.10;99.90;;;;;;647031;222;26876;-80
2022/01/08 09:22:46;;;;;;;14.20;12.63;;;4.30;99.90;;;;;;647869;220;26603;-80
2022/01/08 09:25:13;;;;;;;14.67;13.13;;;4.10;99.90;;;;;;649489;220;26817;-81
2022/01/08 09:27:40;;;;;;;14.00;12.50;;;3.80;99.90;;;;;;648317;221;26516;-80
2022/01/08 09:30:08;;;;;;;13.93;12.37;;;3.70;99.90;;;;;;648073;221;27070;-80
2022/01/08 09:32:35;;;;;;;17.47;12.30;;;3.80;99.90;;;;;;647968;222;26576;-80
2022/01/08 09:35:02;;;;;;;14.90;12.60;;;3.90;99.90;;;;;;647763;217;26592;-80
2022/01/08 09:37:29;;;;;;;17.83;14.67;;;3.90;99.90;;;;;;647758;222;26571;-80
2022/01/08 09:39:57;;;;;;;19.47;15.27;;;4.00;99.90;;;;;;647675;222;26907;-80
2022/01/08 09:42:25;;;;;;;18.50;15.63;;;4.00;99.90;;;;;;647406;222;26549;-80
2022/01/08 09:44:52;;;;;;;16.23;14.40;;;4.00;99.90;;;;;;643004;221;26576;-80
2022/01/08 09:47:19;;;;;;;16.60;13.57;;;4.40;99.90;;;;;;637242;225;26858;-80
2022/01/08 09:49:48;;;;;;;15.07;13.57;;;4.40;99.90;;;;;;639007;224;26909;-80
2022/01/08 09:52:14;;;;;;;13.70;12.30;;;4.30;99.90;;;;;;640633;224;26580;-81
2022/01/08 09:54:41;;;;;;;13.53;11.97;;;4.30;99.90;;;;;;640673;224;26565;-80
2022/01/08 09:57:09;;;;;;;14.87;13.27;;;4.30;99.90;;;;;;639968;224;26848;-81
2022/01/08 09:59:36;;;;;;;15.17;12.57;;;4.40;99.90;;;;;;637049;224;27098;-80
2022/01/08 10:02:04;;;;;;;15.03;12.07;;;4.10;99.90;;;;;;637100;225;26921;-86
2022/01/08 10:04:34;;;;;;;15.17;12.50;;;4.10;99.90;;;;;;636900;225;26881;-80
2022/01/08 10:07:12;;;;;;;12.80;11.47;;;3.80;99.90;;;;;;637184;223;26570;-81
2022/01/08 10:09:55;;;;;;;15.00;12.33;;;3.80;99.90;;;;;;636931;224;26616;-80
2022/01/08 10:12:22;;;;;;;14.20;11.53;;;3.80;99.90;;;;;;637195;224;26579;-81
2022/01/08 10:17:37;;;;;;;12.03;10.83;;;3.80;99.90;;;;;;638844;222;26833;-78
2022/01/08 10:20:04;;;;;;;12.47;11.17;;;3.70;99.90;;;;;;637049;222;26592;-78
2022/01/08 10:22:31;;;;;;;13.60;12.00;;;3.40;99.90;;;;;;646290;222;26553;-77
2022/01/08 10:25:12;;;;;;;12.23;10.93;;;3.40;99.90;;;;;;637457;224;26781;-78
2022/01/08 10:27:39;;;;;;;12.63;11.33;;;3.40;99.90;;;;;;640394;221;26527;-79
2022/01/08 10:30:08;;;;;;;13.60;12.30;;;3.40;99.90;;;;;;638513;221;26891;-78
2022/01/08 10:32:34;;;;;;;15.90;14.00;;;3.20;99.90;;;;;;636523;222;22589;-78
2022/01/08 10:35:01;;;;;;;16.10;12.03;;;3.20;99.90;;;;;;644356;221;26761;-78
2022/01/08 10:37:28;;;;;;;12.57;11.10;;;3.50;99.90;;;;;;641646;221;26490;-77
2022/01/08 10:39:55;;;;;;;12.70;11.13;;;3.30;99.90;;;;;;640111;223;26889;-78
2022/01/08 10:42:24;;;;;;;15.53;11.57;;;3.40;99.90;;;;;;641018;224;26545;-78
2022/01/08 10:44:50;;;;;;;14.17;12.00;;;3.60;99.90;;;;;;639087;224;26767;-78
2022/01/08 10:47:17;;;;;;;13.13;11.67;;;3.80;99.90;;;;;;641950;221;26530;-78
2022/01/08 10:50:02;;;;;;;12.53;11.23;;;3.70;99.90;;;;;;643642;221;26633;-77
2022/01/08 10:52:28;;;;;;;13.60;12.00;;;3.90;99.90;;;;;;636900;224;26598;-78
2022/01/08 10:54:57;;;;;;;13.03;11.27;;;4.10;99.90;;;;;;643280;222;26609;-78
2022/01/08 10:57:32;;;;;;;14.47;12.23;;;4.10;99.90;;;;;;638058;224;26904;-78
2022/01/08 10:59:59;;;;;;;13.57;11.70;;;3.70;99.90;;;;;;639323;221;26631;-78
2022/01/08 11:02:28;;;;;;;13.53;11.60;;;3.50;99.90;;;;;;641541;221;27280;-77
2022/01/08 11:04:54;;;;;;;15.10;11.87;;;3.70;99.90;;;;;;640061;222;26577;-78
2022/01/08 11:07:30;;;;;;;14.03;12.00;;;3.80;99.90;;;;;;642389;221;27136;-82
2022/01/08 11:10:04;;;;;;;14.53;12.67;;;3.90;99.90;;;;;;639067;221;27293;-82
2022/01/08 11:12:32;;;;;;;12.60;11.10;;;3.70;99.90;;;;;;639536;224;26581;-83
2022/01/08 11:15:23;;;;;;;15.43;11.53;;;3.60;99.90;;;;;;639741;222;26582;-77
2022/01/08 11:17:33;;;;;;;16.83;11.17;;;4.00;99.90;;;;;;645778;222;26745;-77
2022/01/08 11:20:05;;;;;;;13.27;11.83;;;4.20;99.90;;;;;;647356;222;26748;-77
2022/01/08 11:22:33;;;;;;;13.20;11.30;;;4.60;99.90;;;;;;645922;222;26490;-77
2022/01/08 11:25:04;;;;;;;12.40;10.93;;;4.50;99.90;;;;;;638142;224;26554;-76
2022/01/08 11:27:33;;;;;;;14.77;11.30;;;4.80;99.90;;;;;;640235;224;26540;-77
2022/01/08 11:30:04;;;;;;;12.93;10.13;;;4.70;99.90;;;;;;646860;221;26574;-78
2022/01/08 11:32:32;;;;;;;12.07;9.97;;;4.70;99.90;;;;;;640050;224;26533;-76
2022/01/08 11:34:59;;;;;;;10.90;9.90;;;4.20;99.90;;;;;;640827;224;26854;-76
2022/01/08 11:37:26;;;;;;;11.57;9.97;;;4.40;99.90;;;;;;639797;224;26545;-76
2022/01/08 11:39:53;;;;;;;11.30;10.13;;;4.50;99.90;;;;;;638561;222;27199;-77
2022/01/08 11:42:21;;;;;;;9.63;8.73;;;4.80;99.90;;;;;;642913;222;26549;-77
2022/01/08 11:44:48;;;;;;;10.17;9.00;;;4.70;99.90;;;;;;641011;222;26545;-77
2022/01/08 11:47:15;;;;;;;9.80;8.07;;;5.10;99.90;;;;;;646657;220;26535;-77
2022/01/08 11:49:42;;;;;;;9.60;8.43;;;5.10;99.90;;;;;;641338;223;26559;-77
2022/01/08 11:52:21;;;;;;;11.40;8.30;;;5.10;99.90;;;;;;639914;223;26554;-77
2022/01/08 11:54:49;;;;;;;10.07;9.07;;;5.10;99.90;;;;;;638372;225;26531;-77
2022/01/08 11:57:17;;;;;;;9.90;8.30;;;5.30;99.90;;;;;;638183;225;26552;-77
2022/01/08 11:59:44;;;;;;;11.90;8.37;;;5.30;99.90;;;;;;639737;224;26558;-77
2022/01/08 12:02:12;;;;;;;9.30;8.40;;;5.20;99.90;;;;;;641523;224;26501;-77
2022/01/08 12:04:40;;;;;;;8.23;7.40;;;5.30;99.90;;;;;;641388;224;26563;-77
2022/01/08 12:07:17;;;;;;;7.83;7.03;;;5.20;99.90;;;;;;641680;222;26769;-78
2022/01/08 12:09:44;;;;;;;7.40;6.70;;;4.70;99.90;;;;;;642763;222;26521;-77
2022/01/08 12:12:11;;;;;;;7.77;6.97;;;4.60;99.90;;;;;;642598;222;26607;-82
2022/01/08 12:14:44;;;;;;;7.67;6.93;;;4.70;99.90;;;;;;647480;222;26917;-81
2022/01/08 12:17:13;;;;;;;9.47;7.30;;;4.90;99.90;;;;;;647407;222;27075;-80
2022/01/08 12:19:40;;;;;;;8.43;7.53;;;4.70;99.90;;;;;;643278;222;26632;-79
2022/01/08 12:22:30;;;;;;;8.33;7.10;;;4.70;99.90;;;;;;639331;222;26555;-82
2022/01/08 12:25:00;;;;;;;9.90;6.87;;;4.40;99.90;;;;;;636890;225;26879;-83
2022/01/08 12:27:38;;;;;;;7.70;6.87;;;4.70;99.90;;;;;;637094;225;26792;-82
2022/01/08 12:30:05;;;;;;;8.87;6.37;;;4.80;99.90;;;;;;636946;225;26588;-83
2022/01/08 12:32:35;;;;;;;7.27;6.47;;;4.60;99.90;;;;;;637136;221;26580;-82
2022/01/08 12:35:12;;;;;;;7.87;6.60;;;4.60;99.90;;;;;;641487;222;26893;-83
2022/01/08 12:37:40;;;;;;;11.33;7.33;;;4.50;99.90;;;;;;642073;222;26834;-83
2022/01/08 12:40:07;;;;;;;9.23;7.30;;;4.70;99.90;;;;;;640346;224;26628;-82
2022/01/08 12:42:35;;;;;;;13.10;8.43;;;5.10;99.90;;;;;;642210;222;26572;-83
2022/01/08 12:45:07;;;;;;;11.50;7.63;;;5.10;99.90;;;;;;637089;224;26542;-83
2022/01/08 12:47:40;;;;;;;9.50;7.87;;;5.00;99.90;;;;;;642678;222;26596;-82
2022/01/08 12:50:17;;;;;;;12.17;8.57;;;4.90;99.90;;;;;;644540;222;26908;-83
2022/01/08 12:52:56;;;;;;;11.33;8.67;;;4.60;99.90;;;;;;646999;222;26580;-83
2022/01/08 12:55:23;;;;;;;12.90;8.03;;;4.30;99.90;;;;;;647200;222;26555;-82
2022/01/08 12:57:50;;;;;;;13.23;8.53;;;4.10;99.90;;;;;;641846;222;26608;-82
2022/01/08 13:00:18;;;;;;;10.53;8.43;;;4.20;99.90;;;;;;638523;223;26772;-82